Time;durP1;ratioP1;P1;durP2;ratioP2;P2;SDS_P1;SDS_P2;PMS_P1;PMS_P2;Temp;Humidity;BMP_temperature;BMP_pressure;BME280_temperature;BME280_humidity;BME280_pressure;Samples;Min_cycle;Max_cycle;Signal;HPM_P1;HPM_P2
2021/09/02 00:01:53;;;;;;;5.15;3.92;;;17.30;99.90;;;;;;5045318;28;20059;-72
2021/09/02 00:04:18;;;;;;;9.13;4.18;;;17.30;99.90;;;;;;5055054;28;20040;-72
2021/09/02 00:06:44;;;;;;;7.68;3.97;;;17.30;99.90;;;;;;5054984;28;20025;-72
2021/09/02 00:09:09;;;;;;;4.60;3.40;;;17.30;99.90;;;;;;5046812;28;20064;-72
2021/09/02 00:11:35;;;;;;;4.43;3.20;;;17.30;99.90;;;;;;5046752;28;20028;-72
2021/09/02 00:14:01;;;;;;;6.85;4.35;;;17.30;99.90;;;;;;5046322;28;20033;-72
2021/09/02 00:16:26;;;;;;;5.25;3.63;;;17.30;99.90;;;;;;5051556;28;20366;-72
2021/09/02 00:18:52;;;;;;;7.25;3.63;;;17.30;99.90;;;;;;5054325;28;20497;-72
2021/09/02 00:21:17;;;;;;;5.50;3.17;;;17.20;99.90;;;;;;5053371;28;20393;-72
2021/09/02 00:23:43;;;;;;;5.30;3.33;;;17.20;99.90;;;;;;5045539;28;20037;-72
2021/09/02 00:26:09;;;;;;;10.90;3.78;;;17.20;99.90;;;;;;5034691;28;20433;-72
2021/09/02 00:28:34;;;;;;;6.15;3.53;;;17.30;99.90;;;;;;5045403;28;20052;-72
2021/09/02 00:31:00;;;;;;;9.77;3.55;;;17.20;99.90;;;;;;5054700;28;20433;-72
2021/09/02 00:33:25;;;;;;;6.70;3.50;;;17.20;99.90;;;;;;5054596;28;20021;-72
2021/09/02 00:35:51;;;;;;;5.57;3.28;;;17.20;99.90;;;;;;5053131;28;20071;-72
2021/09/02 00:38:16;;;;;;;5.35;3.42;;;17.20;99.90;;;;;;5054463;28;20518;-72
2021/09/02 00:40:42;;;;;;;8.48;3.65;;;17.20;99.90;;;;;;5054388;28;20033;-72
2021/09/02 00:43:08;;;;;;;4.70;3.42;;;17.10;99.90;;;;;;5051416;28;20053;-71
2021/09/02 00:45:33;;;;;;;8.25;3.60;;;17.10;99.90;;;;;;5052648;28;20106;-72
2021/09/02 00:47:59;;;;;;;4.65;3.03;;;17.10;99.90;;;;;;5054170;28;20024;-72
2021/09/02 00:50:25;;;;;;;7.78;3.17;;;17.10;99.90;;;;;;5052863;28;20025;-72
2021/09/02 00:52:51;;;;;;;6.38;3.60;;;17.00;99.90;;;;;;5054337;28;20024;-72
2021/09/02 00:55:16;;;;;;;4.05;3.33;;;17.10;99.90;;;;;;5052873;28;20025;-72
2021/09/02 00:57:42;;;;;;;3.70;3.13;;;17.10;99.90;;;;;;5054155;28;20408;-71
2021/09/02 01:00:13;;;;;;;4.35;3.00;;;17.10;99.90;;;;;;5052614;28;20396;-72
2021/09/02 01:02:42;;;;;;;3.40;3.00;;;17.20;99.90;;;;;;5053965;28;20029;-72
2021/09/02 01:05:09;;;;;;;6.80;3.85;;;17.10;99.90;;;;;;5053990;28;20032;-72
2021/09/02 01:07:35;;;;;;;9.20;4.13;;;17.20;99.90;;;;;;5052261;28;20060;-72
2021/09/02 01:10:03;;;;;;;6.38;3.65;;;17.20;99.90;;;;;;5052007;28;20401;-71
2021/09/02 01:12:55;;;;;;;5.88;3.05;;;17.20;99.90;;;;;;5053890;28;20025;-72
2021/09/02 01:15:27;;;;;;;5.55;3.47;;;17.10;99.90;;;;;;5053634;28;20466;-72
2021/09/02 01:17:58;;;;;;;6.30;3.90;;;17.10;99.90;;;;;;5052644;28;20460;-72
2021/09/02 01:20:26;;;;;;;4.00;2.70;;;17.10;99.90;;;;;;5053529;28;20036;-72
2021/09/02 01:22:57;;;;;;;5.13;2.97;;;17.10;99.90;;;;;;5053645;28;20033;-72
2021/09/02 01:25:30;;;;;;;4.30;3.03;;;17.10;99.90;;;;;;5039836;28;20417;-72
2021/09/02 01:28:02;;;;;;;6.43;3.33;;;17.10;99.90;;;;;;5048711;28;20025;-72
2021/09/02 01:30:28;;;;;;;7.32;3.50;;;17.10;99.90;;;;;;5054699;28;20124;-73
2021/09/02 01:32:54;;;;;;;7.40;3.20;;;17.00;99.90;;;;;;5053970;28;20116;-72
2021/09/02 01:35:21;;;;;;;5.75;2.72;;;17.00;99.90;;;;;;5053760;28;20029;-72
2021/09/02 01:37:53;;;;;;;6.55;3.38;;;17.00;99.90;;;;;;5053618;28;20033;-72
2021/09/02 01:40:21;;;;;;;5.78;4.07;;;17.00;99.90;;;;;;5053722;28;20389;-72
2021/09/02 01:42:47;;;;;;;3.50;3.20;;;17.00;99.90;;;;;;5051979;28;20094;-71
2021/09/02 01:45:14;;;;;;;7.05;3.15;;;17.00;99.90;;;;;;5084334;28;20049;-73
2021/09/02 01:47:41;;;;;;;6.80;3.58;;;17.00;99.90;;;;;;5033844;28;20034;-73
2021/09/02 01:50:12;;;;;;;4.17;2.83;;;17.00;99.90;;;;;;5034404;28;20025;-72
2021/09/02 01:52:38;;;;;;;4.68;3.95;;;17.00;99.90;;;;;;5033769;28;20021;-72
2021/09/02 01:55:06;;;;;;;5.10;3.15;;;17.00;99.90;;;;;;5034114;28;20028;-73
2021/09/02 01:57:31;;;;;;;6.50;3.75;;;17.00;99.90;;;;;;5034168;28;20029;-72
2021/09/02 01:59:57;;;;;;;6.25;3.63;;;17.00;99.90;;;;;;5033977;28;20482;-72
2021/09/02 02:02:23;;;;;;;7.97;4.35;;;17.00;99.90;;;;;;5033748;28;20041;-74
2021/09/02 02:04:48;;;;;;;3.88;3.25;;;17.00;99.90;;;;;;5033836;28;20033;-73
2021/09/02 02:07:14;;;;;;;4.88;3.60;;;16.90;99.90;;;;;;5034966;28;20037;-72
2021/09/02 02:09:40;;;;;;;6.85;4.20;;;16.90;99.90;;;;;;5033961;28;20037;-72
2021/09/02 02:12:06;;;;;;;5.40;3.53;;;16.90;99.90;;;;;;5032740;28;20064;-72
2021/09/02 02:14:32;;;;;;;9.48;3.30;;;16.90;99.90;;;;;;5034048;28;20033;-73
2021/09/02 02:16:57;;;;;;;6.18;4.03;;;16.90;99.90;;;;;;5066019;28;20434;-72
2021/09/02 02:19:23;;;;;;;8.63;3.30;;;16.90;99.90;;;;;;5033982;28;20053;-72
2021/09/02 02:21:49;;;;;;;6.55;3.50;;;16.90;99.90;;;;;;5051777;28;20405;-72
2021/09/02 02:24:14;;;;;;;6.57;3.60;;;16.90;99.90;;;;;;5053114;28;20037;-72
2021/09/02 02:26:40;;;;;;;6.53;3.65;;;16.90;99.90;;;;;;5056190;28;20370;-73
2021/09/02 02:29:05;;;;;;;4.53;2.97;;;16.80;99.90;;;;;;5055628;28;20358;-72
2021/09/02 02:31:31;;;;;;;6.22;3.50;;;16.90;99.90;;;;;;5055954;28;20026;-72
2021/09/02 02:33:57;;;;;;;4.78;3.20;;;16.90;99.90;;;;;;5056851;28;20027;-72
2021/09/02 02:36:22;;;;;;;6.97;3.13;;;16.80;99.90;;;;;;5056756;28;20017;-71
2021/09/02 02:38:48;;;;;;;7.20;3.38;;;16.80;99.90;;;;;;5040313;28;20071;-71
2021/09/02 02:41:14;;;;;;;4.25;3.42;;;16.80;99.90;;;;;;5036718;28;20014;-71
2021/09/02 02:43:39;;;;;;;5.05;3.22;;;16.80;99.90;;;;;;5036784;28;20079;-71
2021/09/02 02:46:05;;;;;;;7.63;3.50;;;16.80;99.90;;;;;;5036720;28;20030;-71
2021/09/02 02:48:31;;;;;;;7.57;3.30;;;16.80;99.90;;;;;;5036843;28;20044;-72
2021/09/02 02:50:56;;;;;;;5.03;2.92;;;16.90;99.90;;;;;;5037846;28;20124;-71
2021/09/02 02:53:22;;;;;;;3.53;2.92;;;16.90;99.90;;;;;;5055196;28;20021;-71
2021/09/02 02:55:48;;;;;;;5.85;3.70;;;16.80;99.90;;;;;;5053778;28;20036;-71
2021/09/02 02:58:13;;;;;;;4.85;2.72;;;16.80;99.90;;;;;;5036590;28;20053;-71
2021/09/02 03:00:39;;;;;;;5.65;3.30;;;16.80;99.90;;;;;;5043438;28;20021;-72
2021/09/02 03:03:06;;;;;;;6.22;2.80;;;16.80;99.90;;;;;;5055113;28;20017;-71
2021/09/02 03:05:32;;;;;;;8.18;3.10;;;16.80;99.90;;;;;;5048536;28;20076;-71
2021/09/02 03:07:58;;;;;;;3.08;2.40;;;16.80;99.90;;;;;;5036140;28;20029;-71
2021/09/02 03:10:23;;;;;;;4.18;2.83;;;16.80;99.90;;;;;;5036012;28;20022;-71
2021/09/02 03:12:49;;;;;;;3.20;2.55;;;16.80;99.90;;;;;;5036150;28;20114;-71
2021/09/02 03:15:15;;;;;;;4.00;2.65;;;16.80;99.90;;;;;;5049525;28;20021;-71
2021/09/02 03:17:40;;;;;;;6.45;3.05;;;16.80;99.90;;;;;;5055992;28;20457;-71
2021/09/02 03:20:07;;;;;;;3.75;2.60;;;16.80;99.90;;;;;;5055769;28;20044;-71
2021/09/02 03:22:33;;;;;;;3.67;2.63;;;16.80;99.90;;;;;;5045560;28;20428;-71
2021/09/02 03:24:59;;;;;;;4.60;3.05;;;16.80;99.90;;;;;;5055869;28;20025;-71
2021/09/02 03:27:24;;;;;;;3.85;3.10;;;16.70;99.90;;;;;;5054501;28;20537;-71
2021/09/02 03:29:50;;;;;;;2.95;2.58;;;16.80;99.90;;;;;;5035839;28;20481;-71
2021/09/02 03:32:16;;;;;;;3.03;2.28;;;16.70;99.90;;;;;;5051491;28;20099;-71
2021/09/02 03:34:41;;;;;;;4.93;2.88;;;16.80;99.90;;;;;;5055630;28;20023;-71
2021/09/02 03:37:07;;;;;;;3.53;2.95;;;16.80;99.90;;;;;;5055558;28;20100;-71
2021/09/02 03:39:33;;;;;;;3.45;2.60;;;16.80;99.90;;;;;;5055540;28;20118;-71
2021/09/02 03:41:58;;;;;;;4.95;2.70;;;16.80;99.90;;;;;;5054308;28;20017;-71
2021/09/02 03:44:24;;;;;;;3.08;2.50;;;16.80;99.90;;;;;;5055501;28;20535;-71
2021/09/02 03:46:50;;;;;;;3.22;2.80;;;16.70;99.90;;;;;;5040830;28;20033;-71
2021/09/02 03:49:15;;;;;;;5.80;2.80;;;16.80;99.90;;;;;;5035506;28;20108;-72
2021/09/02 03:51:41;;;;;;;8.60;2.80;;;16.70;99.90;;;;;;5034141;28;20076;-71
2021/09/02 03:54:07;;;;;;;5.57;3.15;;;16.70;99.90;;;;;;5035382;28;20436;-71
2021/09/02 03:56:32;;;;;;;3.33;2.42;;;16.70;99.90;;;;;;5046922;28;20040;-71
2021/09/02 03:58:58;;;;;;;3.38;2.45;;;16.70;99.90;;;;;;5055340;28;20021;-71
2021/09/02 04:01:25;;;;;;;3.63;2.78;;;16.70;99.90;;;;;;5055221;28;20111;-71
2021/09/02 04:03:51;;;;;;;5.88;2.95;;;16.70;99.90;;;;;;5050918;28;20037;-71
2021/09/02 04:06:17;;;;;;;3.65;3.10;;;16.70;99.90;;;;;;5055129;28;20469;-72
2021/09/02 04:08:43;;;;;;;5.35;2.90;;;16.70;99.90;;;;;;5054833;28;20017;-71
2021/09/02 04:11:08;;;;;;;3.30;2.55;;;16.70;99.90;;;;;;5054971;28;20096;-71
2021/09/02 04:13:34;;;;;;;3.22;2.65;;;16.80;99.90;;;;;;5053234;28;20394;-71
2021/09/02 04:15:59;;;;;;;3.85;2.65;;;16.80;99.90;;;;;;5054919;28;20032;-71
2021/09/02 04:18:25;;;;;;;7.70;2.83;;;16.80;99.90;;;;;;5041804;28;20029;-71
2021/09/02 04:20:51;;;;;;;3.30;2.35;;;16.70;99.90;;;;;;5043629;28;20033;-72
2021/09/02 04:23:16;;;;;;;3.75;2.65;;;16.70;99.90;;;;;;5054734;28;20057;-71
2021/09/02 04:25:42;;;;;;;7.22;2.55;;;16.60;99.90;;;;;;5038025;28;20029;-71
2021/09/02 04:28:07;;;;;;;7.72;2.47;;;16.70;99.90;;;;;;5046166;28;20520;-71
2021/09/02 04:30:33;;;;;;;6.07;2.90;;;16.60;99.90;;;;;;5053372;28;20071;-70
2021/09/02 04:33:01;;;;;;;3.30;2.50;;;16.60;99.90;;;;;;5054590;28;20434;-72
2021/09/02 04:35:27;;;;;;;5.10;3.17;;;16.60;99.90;;;;;;5053896;28;20017;-71
2021/09/02 04:37:52;;;;;;;4.90;2.78;;;16.60;99.90;;;;;;5054406;28;20075;-71
2021/09/02 04:40:18;;;;;;;4.50;3.10;;;16.60;99.90;;;;;;5054400;28;20032;-71
2021/09/02 04:42:44;;;;;;;3.70;2.60;;;16.60;99.90;;;;;;5054404;28;20025;-71
2021/09/02 04:45:10;;;;;;;4.63;2.70;;;16.60;99.90;;;;;;5041416;28;20052;-71
2021/09/02 04:47:36;;;;;;;4.18;2.85;;;16.60;99.90;;;;;;5034364;28;20148;-71
2021/09/02 04:50:05;;;;;;;3.38;2.55;;;16.60;99.90;;;;;;5043390;28;20128;-71
2021/09/02 04:52:31;;;;;;;6.88;2.70;;;16.60;99.90;;;;;;5054179;28;20021;-71
2021/09/02 04:54:57;;;;;;;6.45;4.15;;;16.70;99.90;;;;;;5054139;28;20021;-71
2021/09/02 04:57:23;;;;;;;6.60;3.65;;;16.60;99.90;;;;;;5054103;28;20028;-71
2021/09/02 04:59:49;;;;;;;6.93;3.40;;;16.60;99.90;;;;;;5054041;28;20033;-71
2021/09/02 05:02:15;;;;;;;11.27;3.75;;;16.60;99.90;;;;;;5053994;28;20028;-71
2021/09/02 05:04:41;;;;;;;4.70;2.90;;;16.60;99.90;;;;;;5043672;28;20397;-71
2021/09/02 05:07:07;;;;;;;4.55;3.25;;;16.70;99.90;;;;;;5033862;28;20030;-71
2021/09/02 05:09:32;;;;;;;8.10;3.30;;;16.70;99.90;;;;;;5032600;28;20120;-71
2021/09/02 05:11:58;;;;;;;10.27;3.72;;;16.60;99.90;;;;;;5051734;28;20024;-71
2021/09/02 05:14:23;;;;;;;9.65;3.72;;;16.60;99.90;;;;;;5053707;28;20029;-71
2021/09/02 05:16:49;;;;;;;8.15;3.65;;;16.60;99.90;;;;;;5053768;28;20021;-71
2021/09/02 05:19:15;;;;;;;4.70;3.40;;;16.60;99.90;;;;;;5051764;28;20056;-71
2021/09/02 05:21:40;;;;;;;12.25;3.80;;;16.70;99.90;;;;;;5053532;28;20028;-71
2021/09/02 05:24:06;;;;;;;5.18;3.38;;;16.70;99.90;;;;;;5046790;28;20108;-72
2021/09/02 05:26:50;;;;;;;8.05;2.85;;;16.70;99.90;;;;;;5033677;28;20100;-72
2021/09/02 05:29:16;;;;;;;11.25;4.80;;;16.70;99.90;;;;;;5043749;28;20033;-72
2021/09/02 05:31:42;;;;;;;7.57;4.28;;;16.70;99.90;;;;;;5053489;28;20094;-72
2021/09/02 05:34:07;;;;;;;5.63;3.60;;;16.70;99.90;;;;;;5046279;28;20521;-72
2021/09/02 05:36:33;;;;;;;10.10;3.72;;;16.60;99.90;;;;;;5032525;28;20025;-72
2021/09/02 05:38:58;;;;;;;6.38;2.97;;;16.60;99.90;;;;;;5033523;28;20021;-72
2021/09/02 05:41:24;;;;;;;6.53;3.63;;;16.60;99.90;;;;;;5033427;28;20075;-72
2021/09/02 05:43:49;;;;;;;5.93;3.03;;;16.70;99.90;;;;;;5051401;28;20052;-72
2021/09/02 05:46:15;;;;;;;5.35;3.00;;;16.70;99.90;;;;;;5050542;28;20112;-72
2021/09/02 05:48:41;;;;;;;4.50;3.22;;;16.70;99.90;;;;;;5032066;28;20051;-72
2021/09/02 05:51:06;;;;;;;6.45;3.60;;;16.80;99.90;;;;;;5033370;28;20021;-72
2021/09/02 05:53:32;;;;;;;5.32;3.13;;;16.90;99.90;;;;;;5049728;28;20469;-72
2021/09/02 05:55:57;;;;;;;5.18;3.45;;;16.90;99.90;;;;;;5053151;28;20025;-72
2021/09/02 05:58:23;;;;;;;12.27;4.47;;;16.80;99.90;;;;;;5052163;28;20029;-72
2021/09/02 06:00:48;;;;;;;5.38;3.47;;;16.80;99.90;;;;;;5053355;28;20029;-73
2021/09/02 06:03:14;;;;;;;9.23;3.50;;;16.90;99.90;;;;;;5055799;28;20371;-72
2021/09/02 06:05:40;;;;;;;7.20;3.40;;;16.90;99.90;;;;;;5057315;28;20036;-72
2021/09/02 06:08:05;;;;;;;8.13;3.63;;;16.90;99.90;;;;;;5057392;28;20025;-72
2021/09/02 06:10:33;;;;;;;8.68;3.75;;;16.90;99.90;;;;;;5056091;28;20477;-72
2021/09/02 06:12:59;;;;;;;5.43;3.42;;;16.90;99.90;;;;;;5042613;28;20374;-72
2021/09/02 06:15:25;;;;;;;6.28;3.13;;;16.90;99.90;;;;;;5038289;28;20022;-72
2021/09/02 06:17:50;;;;;;;6.20;3.33;;;16.90;99.90;;;;;;5037183;28;20018;-72
2021/09/02 06:20:16;;;;;;;5.85;3.42;;;17.00;99.90;;;;;;5047045;28;20044;-72
2021/09/02 06:22:42;;;;;;;4.90;2.88;;;17.00;99.90;;;;;;5064068;28;20029;-72
2021/09/02 06:25:08;;;;;;;6.93;3.72;;;17.00;99.90;;;;;;5089247;28;20053;-72
2021/09/02 06:27:35;;;;;;;5.85;3.50;;;17.00;99.90;;;;;;5053056;28;20115;-72
2021/09/02 06:30:01;;;;;;;8.50;3.50;;;17.10;99.90;;;;;;5036893;28;20033;-72
2021/09/02 06:32:26;;;;;;;7.93;3.75;;;17.10;99.90;;;;;;5046072;28;20067;-72
2021/09/02 06:34:52;;;;;;;4.50;3.00;;;17.20;99.90;;;;;;5056800;28;20406;-72
2021/09/02 06:37:17;;;;;;;8.18;3.55;;;17.20;99.90;;;;;;5057023;28;20033;-72
2021/09/02 06:39:43;;;;;;;5.57;3.63;;;17.20;99.90;;;;;;5056676;28;20033;-72
2021/09/02 06:42:08;;;;;;;11.48;3.47;;;17.20;99.90;;;;;;5049941;28;20458;-72
2021/09/02 06:44:34;;;;;;;8.70;4.22;;;17.30;99.90;;;;;;5036613;28;20165;-72
2021/09/02 06:47:00;;;;;;;11.32;4.35;;;17.20;99.90;;;;;;5036566;28;20087;-72
2021/09/02 06:49:25;;;;;;;9.82;3.72;;;17.20;99.90;;;;;;5068551;28;20093;-72
2021/09/02 06:51:53;;;;;;;6.95;3.33;;;17.30;99.90;;;;;;5040230;28;20063;-72
2021/09/02 06:54:19;;;;;;;;;;;17.30;99.90;;;;;;5056899;28;20468;-72
2021/09/02 06:56:45;;;;;;;10.05;3.33;;;17.40;99.90;;;;;;5055342;28;19909;-72
2021/09/02 06:59:10;;;;;;;12.20;4.45;;;17.50;99.90;;;;;;5055247;28;20048;-72
2021/09/02 07:01:36;;;;;;;11.85;3.88;;;17.50;99.90;;;;;;5054645;28;20111;-72
2021/09/02 07:04:02;;;;;;;7.28;3.30;;;17.50;99.90;;;;;;5056204;28;20366;-72
2021/09/02 07:06:27;;;;;;;5.15;3.13;;;17.60;99.90;;;;;;5056531;28;20100;-73
2021/09/02 07:08:53;;;;;;;7.32;3.90;;;17.70;99.90;;;;;;5053683;28;20021;-72
2021/09/02 07:11:18;;;;;;;12.75;5.28;;;17.90;99.90;;;;;;5055728;28;20025;-72
2021/09/02 07:13:44;;;;;;;9.13;3.60;;;17.90;99.90;;;;;;5055891;28;20024;-72
2021/09/02 07:16:10;;;;;;;9.35;3.20;;;17.90;99.90;;;;;;5054728;28;20033;-72
2021/09/02 07:18:35;;;;;;;8.05;3.80;;;17.90;99.90;;;;;;5055656;28;20469;-72
2021/09/02 07:21:01;;;;;;;9.88;4.05;;;17.90;99.90;;;;;;5055847;28;20069;-72
2021/09/02 07:23:26;;;;;;;7.95;3.58;;;18.00;99.90;;;;;;5055974;28;20040;-72
2021/09/02 07:25:52;;;;;;;10.45;4.13;;;18.10;99.90;;;;;;5053988;28;20044;-72
2021/09/02 07:28:17;;;;;;;11.98;4.07;;;18.10;99.90;;;;;;5054949;28;20029;-72
2021/09/02 07:30:43;;;;;;;6.80;3.35;;;18.10;99.90;;;;;;5053158;28;20029;-72
2021/09/02 07:33:10;;;;;;;7.85;4.25;;;18.10;99.90;;;;;;5055984;28;20103;-72
2021/09/02 07:35:36;;;;;;;9.23;3.77;;;18.10;99.90;;;;;;5045060;28;20025;-72
2021/09/02 07:38:02;;;;;;;10.88;5.50;;;18.20;99.90;;;;;;5034688;28;20033;-72
2021/09/02 07:40:28;;;;;;;14.10;4.53;;;18.20;99.90;;;;;;5035595;28;20029;-72
2021/09/02 07:42:53;;;;;;;6.28;3.65;;;18.20;99.90;;;;;;5038543;28;20032;-72
2021/09/02 07:45:19;;;;;;;8.05;3.83;;;18.20;99.90;;;;;;5055350;28;20068;-72
2021/09/02 07:47:44;;;;;;;6.63;3.30;;;18.30;99.90;;;;;;5055456;28;20107;-72
2021/09/02 07:50:11;;;;;;;7.25;3.90;;;18.40;99.90;;;;;;5055928;28;20036;-72
2021/09/02 07:52:38;;;;;;;9.43;3.92;;;18.40;99.90;;;;;;5042629;28;20121;-72
2021/09/02 07:55:08;;;;;;;6.28;3.95;;;18.50;99.90;;;;;;5036723;28;20104;-72
2021/09/02 07:57:35;;;;;;;10.27;3.67;;;18.40;99.90;;;;;;5034114;28;20017;-72
2021/09/02 08:00:01;;;;;;;7.60;3.38;;;18.50;99.90;;;;;;5035424;28;20029;-74
2021/09/02 08:02:27;;;;;;;6.82;3.65;;;18.60;99.90;;;;;;5034785;28;20567;-72
2021/09/02 08:04:52;;;;;;;10.40;3.88;;;18.60;99.90;;;;;;5051106;28;20040;-73
2021/09/02 08:07:18;;;;;;;7.20;3.17;;;18.60;99.90;;;;;;5054711;28;20044;-73
2021/09/02 08:09:44;;;;;;;5.85;3.22;;;18.70;99.90;;;;;;5043755;28;20025;-73
2021/09/02 08:12:10;;;;;;;7.60;3.80;;;18.70;99.90;;;;;;5052227;28;20366;-73
2021/09/02 08:14:36;;;;;;;9.20;4.20;;;18.70;99.90;;;;;;5035006;28;20029;-73
2021/09/02 08:17:02;;;;;;;8.35;4.85;;;18.70;99.90;;;;;;5034986;28;20029;-73
2021/09/02 08:19:27;;;;;;;8.75;3.90;;;18.60;99.90;;;;;;5035191;28;20052;-73
2021/09/02 08:21:53;;;;;;;5.38;3.47;;;18.50;99.90;;;;;;5040471;28;20489;-73
2021/09/02 08:24:18;;;;;;;7.20;3.88;;;18.30;99.90;;;;;;5034147;28;20398;-73
2021/09/02 08:26:44;;;;;;;16.92;3.88;;;18.40;99.90;;;;;;5053384;28;20064;-73
2021/09/02 08:29:10;;;;;;;10.52;4.38;;;18.40;99.90;;;;;;5053807;28;20040;-73
2021/09/02 08:31:36;;;;;;;11.32;4.07;;;18.60;99.90;;;;;;5037591;28;20041;-73
2021/09/02 08:34:02;;;;;;;8.20;3.83;;;18.70;99.90;;;;;;5046198;28;20078;-73
2021/09/02 08:36:28;;;;;;;7.43;3.05;;;18.90;99.90;;;;;;5036779;28;20517;-74
2021/09/02 08:38:54;;;;;;;15.85;4.68;;;19.10;99.90;;;;;;5047846;28;20378;-73
2021/09/02 08:41:20;;;;;;;11.00;3.78;;;19.10;99.90;;;;;;5034563;28;20032;-72
2021/09/02 08:43:47;;;;;;;8.93;3.22;;;19.00;99.90;;;;;;5035431;28;20021;-73
2021/09/02 08:46:13;;;;;;;9.48;3.80;;;19.00;99.90;;;;;;5040351;28;20055;-75
2021/09/02 08:48:46;;;;;;;7.90;4.07;;;18.90;99.90;;;;;;5053953;28;20083;-73
2021/09/02 08:51:13;;;;;;;9.23;4.07;;;18.90;99.90;;;;;;5054466;28;20507;-72
2021/09/02 08:53:38;;;;;;;8.45;3.60;;;19.00;99.90;;;;;;5054236;28;20060;-73
2021/09/02 08:56:04;;;;;;;6.32;3.28;;;19.10;99.90;;;;;;5036883;28;20541;-74
2021/09/02 08:58:32;;;;;;;7.95;4.45;;;19.10;99.90;;;;;;5066116;28;20489;-74
2021/09/02 09:00:58;;;;;;;5.18;3.25;;;19.20;99.90;;;;;;5033208;28;20037;-74
2021/09/02 09:03:25;;;;;;;7.53;3.42;;;19.30;99.90;;;;;;5034092;28;20124;-72
2021/09/02 09:05:56;;;;;;;7.05;3.25;;;19.40;99.90;;;;;;5044399;28;20033;-73
2021/09/02 09:08:32;;;;;;;7.15;3.78;;;19.40;99.90;;;;;;5053105;28;20455;-73
2021/09/02 09:11:16;;;;;;;7.95;4.00;;;19.50;99.90;;;;;;5058192;28;20389;-74
2021/09/02 09:13:43;;;;;;;13.05;3.80;;;19.50;99.90;;;;;;5052419;28;20067;-72
2021/09/02 09:16:09;;;;;;;6.43;3.83;;;19.40;99.90;;;;;;5053741;28;20079;-71
2021/09/02 09:18:45;;;;;;;10.88;4.25;;;19.50;99.90;;;;;;5050722;28;20493;-71
2021/09/02 09:21:17;;;;;;;8.77;3.65;;;19.30;99.90;;;;;;5048646;28;20478;-71
2021/09/02 09:23:55;;;;;;;8.32;3.60;;;19.00;99.90;;;;;;5052847;28;20088;-72
2021/09/02 09:26:22;;;;;;;8.52;4.25;;;19.20;99.90;;;;;;5053822;28;20032;-72
2021/09/02 09:28:48;;;;;;;9.13;3.90;;;19.50;99.90;;;;;;5050593;28;20029;-73
2021/09/02 09:31:43;;;;;;;9.93;3.40;;;19.90;99.90;;;;;;5052261;28;20048;-73
2021/09/02 09:34:09;;;;;;;6.80;3.35;;;20.30;99.90;;;;;;5039887;28;20040;-72
2021/09/02 09:36:37;;;;;;;5.95;3.17;;;20.60;99.90;;;;;;5052323;28;20025;-73
2021/09/02 09:39:14;;;;;;;7.43;3.90;;;20.60;99.90;;;;;;5049694;28;20033;-73
2021/09/02 09:41:47;;;;;;;7.20;3.15;;;20.60;99.90;;;;;;5045073;28;20595;-73
2021/09/02 09:44:24;;;;;;;6.03;3.78;;;20.80;99.90;;;;;;5042217;28;20092;-73
2021/09/02 09:47:10;;;;;;;;;;;20.90;99.90;;;;;;5052580;28;20374;-73
2021/09/02 09:49:53;;;;;;;5.05;3.03;;;20.80;99.90;;;;;;5051828;28;19913;-73
2021/09/02 09:52:29;;;;;;;8.73;3.90;;;20.60;99.90;;;;;;5052881;28;20487;-73
2021/09/02 09:55:12;;;;;;;5.40;2.85;;;20.50;99.90;;;;;;5053317;28;20047;-72
2021/09/02 09:57:40;;;;;;;6.45;3.17;;;20.40;99.90;;;;;;5053322;28;20075;-73
2021/09/02 10:00:08;;;;;;;5.25;2.72;;;20.40;99.90;;;;;;5053225;28;20477;-72
2021/09/02 10:02:41;;;;;;;7.60;4.05;;;19.90;99.90;;;;;;5053474;28;20033;-73
2021/09/02 10:05:09;;;;;;;5.43;3.47;;;19.60;99.90;;;;;;5039629;28;20038;-73
2021/09/02 10:07:36;;;;;;;5.60;3.65;;;19.40;99.90;;;;;;5032698;28;20512;-73
2021/09/02 10:10:03;;;;;;;9.15;3.33;;;19.50;99.90;;;;;;5047318;28;20021;-74
2021/09/02 10:12:34;;;;;;;8.40;3.85;;;19.50;99.90;;;;;;5053845;28;20029;-74
2021/09/02 10:15:05;;;;;;;7.35;3.10;;;19.50;99.90;;;;;;5053644;28;20021;-74
2021/09/02 10:17:33;;;;;;;13.48;4.82;;;19.40;99.90;;;;;;5052560;28;20044;-74
2021/09/02 10:20:00;;;;;;;5.72;3.47;;;19.50;99.90;;;;;;5035281;28;20077;-74
2021/09/02 10:22:26;;;;;;;9.60;3.10;;;19.60;99.90;;;;;;5053964;28;20036;-74
2021/09/02 10:24:52;;;;;;;7.63;3.92;;;19.70;99.90;;;;;;5054418;28;20310;-75
2021/09/02 10:27:17;;;;;;;7.05;3.90;;;19.90;99.90;;;;;;5054557;28;20409;-75
2021/09/02 10:29:45;;;;;;;4.72;3.45;;;20.40;99.90;;;;;;5036285;28;20030;-73
2021/09/02 10:32:31;;;;;;;6.47;3.67;;;20.60;99.90;;;;;;5066428;28;20094;-74
2021/09/02 10:35:02;;;;;;;7.15;3.55;;;21.20;99.90;;;;;;5033850;28;20123;-75
2021/09/02 10:37:33;;;;;;;6.18;3.13;;;21.60;99.90;;;;;;5034027;28;20025;-73
2021/09/02 10:40:04;;;;;;;11.73;3.65;;;21.70;99.90;;;;;;5034921;28;20041;-74
2021/09/02 10:42:56;;;;;;;6.63;3.33;;;21.80;99.90;;;;;;5034517;28;20520;-74
2021/09/02 10:45:24;;;;;;;7.10;3.80;;;21.50;99.90;;;;;;5034048;28;20061;-75
2021/09/02 10:48:13;;;;;;;6.35;3.42;;;21.30;99.90;;;;;;5038037;28;20033;-74
2021/09/02 10:50:41;;;;;;;8.23;3.85;;;21.40;99.90;;;;;;5056202;28;20519;-73
2021/09/02 10:53:08;;;;;;;3.30;3.00;;;21.60;99.90;;;;;;5056975;28;20017;-73
2021/09/02 10:55:37;;;;;;;5.73;2.73;;;21.60;99.90;;;;;;5056814;28;20048;-74
2021/09/02 10:58:08;;;;;;;6.63;3.55;;;21.60;99.90;;;;;;5054058;28;20021;-72
2021/09/02 11:00:42;;;;;;;9.02;3.95;;;21.80;99.90;;;;;;5055694;28;20033;-73
2021/09/02 11:03:23;;;;;;;9.45;3.80;;;21.90;99.90;;;;;;5055661;28;20044;-73
2021/09/02 11:05:55;;;;;;;9.00;3.15;;;22.00;99.90;;;;;;5056722;28;20025;-73
2021/09/02 11:08:37;;;;;;;8.30;3.85;;;22.00;99.90;;;;;;5049772;28;20033;-72
2021/09/02 11:11:14;;;;;;;8.48;4.05;;;21.60;99.90;;;;;;5045027;28;20037;-72
2021/09/02 11:13:48;;;;;;;5.07;3.38;;;21.10;99.90;;;;;;5035606;28;20041;-72
2021/09/02 11:16:22;;;;;;;5.53;3.45;;;20.60;99.90;;;;;;5036543;28;20091;-72
2021/09/02 11:18:53;;;;;;;5.10;3.65;;;20.30;99.90;;;;;;5044836;28;20021;-72
2021/09/02 11:21:21;;;;;;;7.22;3.83;;;20.00;99.90;;;;;;5054492;28;20429;-72
2021/09/02 11:23:48;;;;;;;6.63;3.35;;;19.90;99.90;;;;;;5035179;28;20041;-72
2021/09/02 11:26:34;;;;;;;11.00;4.35;;;19.90;99.90;;;;;;5036130;28;20053;-72
2021/09/02 11:29:00;;;;;;;6.28;3.60;;;20.00;99.90;;;;;;5034884;28;20041;-72
2021/09/02 11:31:27;;;;;;;7.35;3.35;;;20.00;99.90;;;;;;5049533;28;20048;-72
2021/09/02 11:33:53;;;;;;;9.30;3.90;;;20.00;99.90;;;;;;5054867;28;20044;-72
2021/09/02 11:36:21;;;;;;;8.60;4.35;;;20.10;99.90;;;;;;5055696;28;20025;-72
2021/09/02 11:38:48;;;;;;;9.52;4.03;;;20.20;99.90;;;;;;5055717;28;20029;-72
2021/09/02 11:41:20;;;;;;;12.43;5.35;;;20.40;99.90;;;;;;5055647;28;20499;-72
2021/09/02 11:43:48;;;;;;;10.98;4.35;;;20.30;99.90;;;;;;5036448;28;20386;-72
2021/09/02 11:46:15;;;;;;;9.38;3.90;;;20.40;99.90;;;;;;5035654;28;20036;-72
2021/09/02 11:49:14;;;;;;;7.88;4.03;;;20.60;99.90;;;;;;5035636;28;20498;-72
2021/09/02 11:51:40;;;;;;;7.35;4.75;;;20.90;99.90;;;;;;5035561;28;20038;-72
2021/09/02 11:54:10;;;;;;;5.40;3.58;;;21.00;99.90;;;;;;5039887;28;20425;-72
2021/09/02 11:56:38;;;;;;;8.38;3.85;;;21.10;99.90;;;;;;5055392;28;20023;-72
2021/09/02 11:59:05;;;;;;;8.55;4.38;;;21.60;99.90;;;;;;5054134;28;20021;-72
2021/09/02 12:01:32;;;;;;;7.88;3.65;;;21.80;99.90;;;;;;5055314;28;20021;-72
2021/09/02 12:03:57;;;;;;;7.53;3.92;;;21.60;99.90;;;;;;5055240;28;20052;-73
2021/09/02 12:06:24;;;;;;;6.55;4.30;;;21.40;99.90;;;;;;5052221;28;20061;-72
2021/09/02 12:08:50;;;;;;;11.40;4.25;;;21.30;99.90;;;;;;5055010;28;20507;-72
2021/09/02 12:11:18;;;;;;;6.45;4.18;;;21.30;99.90;;;;;;5055009;28;20032;-72
2021/09/02 12:13:43;;;;;;;;;;;21.50;99.90;;;;;;5054481;28;20029;-71
2021/09/02 12:16:11;;;;;;;11.40;4.38;;;21.70;99.90;;;;;;5047062;28;20353;-71
2021/09/02 12:18:43;;;;;;;11.32;3.65;;;21.90;99.90;;;;;;5033994;28;20029;-71
2021/09/02 12:21:22;;;;;;;5.38;3.38;;;22.20;99.90;;;;;;5048835;28;20113;-71
2021/09/02 12:23:52;;;;;;;7.18;4.43;;;22.40;99.90;;;;;;5055020;28;20025;-72
2021/09/02 12:26:20;;;;;;;11.48;3.92;;;22.60;99.90;;;;;;5045697;28;20026;-71
2021/09/02 12:28:49;;;;;;;5.10;3.45;;;22.70;99.90;;;;;;5034838;28;20033;-71
2021/09/02 12:31:23;;;;;;;10.65;4.28;;;22.70;99.90;;;;;;5034797;28;20033;-71
2021/09/02 12:34:06;;;;;;;9.15;4.28;;;22.50;99.90;;;;;;5034680;28;20036;-72
2021/09/02 12:36:34;;;;;;;8.55;4.10;;;22.40;99.90;;;;;;5051735;28;20021;-73
2021/09/02 12:39:17;;;;;;;8.20;4.53;;;22.40;99.90;;;;;;5054557;28;20029;-72
2021/09/02 12:41:45;;;;;;;9.65;4.28;;;22.60;99.90;;;;;;5049978;28;20025;-72
2021/09/02 12:44:13;;;;;;;11.50;4.30;;;22.60;99.90;;;;;;5054438;28;20040;-72
2021/09/02 12:46:57;;;;;;;9.10;4.40;;;22.70;99.90;;;;;;5054250;28;20029;-72
2021/09/02 12:49:26;;;;;;;7.75;4.18;;;22.70;99.90;;;;;;5033031;28;20025;-72